Ellen — SIDM — position and weather

sailwx.info

Track history (hours):
 
Tides and Currents Weather Stations Pressure Air Temp Water Temp Dewpoint Dewpoint Depression Visibility Wind Speed Wind Dir Waves Ship Positions

Ellen (Sweden)

Ship's website: http://www.syellen.org/Skolsegelfartyget_Ellen/Hem.html

Last reported at 2020-Sep-20 00:00 UTC. Time now 2020-Sep-20 00:12 UTC.
Position N 59°19' E 018°06'.

Length 22 m; draft 2 m.

Type: Sailing vessel. MMSI: 265508900.

Date/timePositionNaut miles runAvg speedWind from/ knotsBaromVisibWave heightAir tempDewpointWater temp
2020-Sep-20 00:00N 59°19' E 018°06'0 0.0
2020-Sep-19 20:28N 59°19' E 018°06'0 0.0
2020-Sep-19 18:58N 59°19' E 018°06'0 0.0
2020-Sep-19 17:28N 59°19' E 018°06'0 0.0
2020-Sep-19 16:25N 59°19' E 018°06'1 0.6
2020-Sep-19 14:00N 59°19' E 018°09'7 2.5
2020-Sep-19 11:00N 59°22' E 018°22'3 2.8
2020-Sep-19 10:01N 59°22' E 018°17'6 2.4
2020-Sep-19 07:28N 59°19' E 018°06'0 0.0
2020-Sep-19 06:58N 59°19' E 018°06'0 0.0
2020-Sep-19 04:58N 59°19' E 018°06'0 0.0
2020-Sep-19 04:28N 59°19' E 018°06'0 0.0
2020-Sep-19 02:28N 59°19' E 018°06'0 0.0
2020-Sep-19 01:30N 59°19' E 018°06'0 0.0
2020-Sep-18 23:30N 59°19' E 018°06'0 0.0
2020-Sep-18 22:28N 59°19' E 018°06'0 0.0
2020-Sep-18 19:58N 59°19' E 018°06'0 0.0
2020-Sep-18 18:58N 59°19' E 018°06'0 0.0
2020-Sep-18 17:58N 59°19' E 018°06'0 0.0
2020-Sep-18 14:58N 59°19' E 018°06'0 0.0
2020-Sep-18 13:28N 59°19' E 018°06'0 0.0
2020-Sep-18 10:28N 59°19' E 018°06'0 0.0
2020-Sep-18 07:30N 59°19' E 018°06'0 0.0
2020-Sep-18 07:00N 59°19' E 018°06'0 0.0
2020-Sep-18 05:00N 59°19' E 018°06'0 0.0
2020-Sep-18 03:01N 59°19' E 018°06'0 0.0
2020-Sep-18 01:30N 59°19' E 018°06'0 0.0
2020-Sep-18 01:00N 59°19' E 018°06'0 0.0
2020-Sep-17 19:31N 59°19' E 018°06'0 0.0
2020-Sep-17 17:00N 59°19' E 018°06'1 0.7
2020-Sep-17 15:30N 59°19' E 018°08'3 2.7
2020-Sep-17 14:30N 59°20' E 018°13'4 1.5
2020-Sep-17 11:58N 59°19' E 018°06'0 0.0
2020-Sep-17 07:58N 59°19' E 018°06'0 0.0
2020-Sep-17 07:28N 59°19' E 018°06'0 0.0
2020-Sep-17 06:59N 59°19' E 018°06'0 0.0
2020-Sep-17 06:29N 59°19' E 018°06'0 0.0
2020-Sep-17 03:28N 59°19' E 018°06'0 0.0
2020-Sep-17 02:59N 59°19' E 018°06'0 0.0
2020-Sep-17 01:28N 59°19' E 018°06'0 0.0
2020-Sep-17 00:59N 59°19' E 018°06'0 0.0
2020-Sep-17 00:28N 59°19' E 018°06'0 0.0
2020-Sep-16 23:58N 59°19' E 018°06'0 0.0
2020-Sep-16 20:28N 59°19' E 018°06'0 0.0
2020-Sep-16 18:28N 59°19' E 018°06'0 0.0
2020-Sep-16 17:58N 59°19' E 018°06'0 0.0
2020-Sep-16 16:58N 59°19' E 018°06'0 0.0
2020-Sep-16 16:25N 59°19' E 018°06'0 0.0
2020-Sep-16 11:58N 59°19' E 018°06'0 0.0
2020-Sep-16 07:00N 59°19' E 018°06'0 0.0
2020-Sep-16 05:00N 59°19' E 018°06'0 0.0
2020-Sep-16 04:30N 59°19' E 018°06'0 0.0
2020-Sep-16 04:00N 59°19' E 018°06'0 0.0
2020-Sep-16 03:00N 59°19' E 018°06'0 0.0
2020-Sep-16 00:00N 59°19' E 018°06'0 0.0
2020-Sep-15 23:30N 59°19' E 018°06'0 0.0
2020-Sep-15 22:30N 59°19' E 018°06'0 0.0
2020-Sep-15 20:30N 59°19' E 018°06'0 0.0
2020-Sep-15 14:00N 59°19' E 018°06'0 0.0
2020-Sep-15 13:30N 59°19' E 018°06'0 0.0
2020-Sep-15 11:58N 59°19' E 018°06'0 0.0
2020-Sep-15 09:28N 59°19' E 018°06'0 0.0
2020-Sep-15 07:28N 59°19' E 018°06'0 0.0
2020-Sep-15 05:28N 59°19' E 018°06'0 0.0
2020-Sep-15 02:58N 59°19' E 018°06'0 0.0
2020-Sep-15 01:43N 59°19' E 018°06'0 0.0
2020-Sep-14 20:58N 59°19' E 018°06'0 0.0
2020-Sep-14 19:58N 59°19' E 018°06'0 0.0
2020-Sep-14 14:28N 59°19' E 018°06'0 0.0
2020-Sep-14 12:28N 59°19' E 018°06'0 0.0
2020-Sep-14 09:58N 59°19' E 018°06'0 0.0
2020-Sep-14 06:30N 59°19' E 018°06'0 0.0
2020-Sep-14 05:30N 59°19' E 018°06'0 0.0
2020-Sep-14 05:00N 59°19' E 018°06'0 0.0
2020-Sep-14 04:00N 59°19' E 018°06'0 0.0
2020-Sep-14 03:30N 59°19' E 018°06'0 0.0
2020-Sep-14 03:00N 59°19' E 018°06'0 0.0
2020-Sep-14 02:30N 59°19' E 018°06'0 0.0
2020-Sep-14 00:58N 59°19' E 018°06'0 0.0
2020-Sep-13 22:28N 59°19' E 018°06'0 0.0
2020-Sep-13 21:58N 59°19' E 018°06'0 0.0
2020-Sep-13 21:28N 59°19' E 018°06'0 0.0
2020-Sep-13 15:58N 59°19' E 018°06'0 0.0
2020-Sep-13 15:28N 59°19' E 018°06'0 0.0
2020-Sep-13 14:28N 59°19' E 018°06'0 0.0
2020-Sep-13 13:28N 59°19' E 018°06'0 0.0
2020-Sep-13 08:58N 59°19' E 018°06'0 0.0
2020-Sep-13 08:28N 59°19' E 018°06'0 0.0
2020-Sep-13 04:58N 59°19' E 018°06'0 0.0
2020-Sep-13 04:28N 59°19' E 018°06'0 0.0
2020-Sep-13 03:58N 59°19' E 018°06'0 0.0
2020-Sep-13 01:46N 59°19' E 018°06'0 0.0
2020-Sep-12 23:28N 59°19' E 018°06'0 0.0
2020-Sep-12 21:00N 59°19' E 018°06'0 0.0
2020-Sep-12 20:28N 59°19' E 018°06'0 0.0
2020-Sep-12 19:28N 59°19' E 018°06'0 0.0
2020-Sep-12 17:28N 59°19' E 018°06'0 0.0
2020-Sep-12 15:58N 59°19' E 018°06'0 0.0
2020-Sep-12 15:28N 59°19' E 018°06'0 0.0
2020-Sep-12 14:28N 59°19' E 018°06'7 1.5
2020-Sep-12 10:00N 59°22' E 018°18'6 3.7
2020-Sep-12 08:30N 59°19' E 018°09'1 0.7
2020-Sep-12 06:29N 59°19' E 018°06'0 0.0
2020-Sep-12 04:59N 59°19' E 018°06'0 0.0
2020-Sep-12 04:29N 59°19' E 018°06'0 0.0
2020-Sep-12 01:29N 59°19' E 018°06'0 0.0
2020-Sep-11 23:59N 59°19' E 018°06'0 0.0
2020-Sep-11 22:29N 59°19' E 018°06'0 0.0
2020-Sep-11 19:00N 59°19' E 018°06'0 0.0
2020-Sep-11 11:00N 59°19' E 018°06'0 0.0
2020-Sep-11 09:00N 59°19' E 018°06'0 0.0
2020-Sep-11 08:30N 59°19' E 018°06'0 0.0
2020-Sep-11 08:00N 59°19' E 018°06'0 0.0
2020-Sep-11 06:30N 59°19' E 018°06'0 0.0
2020-Sep-11 06:00N 59°19' E 018°06'0 0.0
2020-Sep-11 04:00N 59°19' E 018°06'0 0.0
2020-Sep-11 03:30N 59°19' E 018°06'0 0.0
2020-Sep-10 23:30N 59°19' E 018°06'0 0.0
2020-Sep-10 22:00N 59°19' E 018°06'0 0.0
2020-Sep-10 21:30N 59°19' E 018°06'0 0.0
2020-Sep-10 21:00N 59°19' E 018°06'2 1.4
2020-Sep-10 19:30N 59°19' E 018°10'9 1.7
2020-Sep-10 14:20N 59°14' E 018°24'6 2.2
2020-Sep-10 11:30N 59°11' E 018°35'0 0.8
2020-Sep-10 11:00N 59°11' E 018°35'3 2.1
2020-Sep-10 09:30N 59°10' E 018°30'6 3.7
2020-Sep-10 08:00N 59°14' E 018°22'0 0.1
2020-Sep-10 04:57N 59°14' E 018°22'0 0.0
2020-Sep-10 03:30N 59°14' E 018°22'0 0.0
2020-Sep-10 01:30N 59°14' E 018°22'  
Track history (hours):
 
Tides and Currents Weather Stations Pressure Air Temp Water Temp Dewpoint Dewpoint Depression Visibility Wind Speed Wind Dir Waves Ship Positions

Ellen (Sweden)

Ship's website: http://www.syellen.org/Skolsegelfartyget_Ellen/Hem.html

Last reported at 2020-Sep-20 00:00 UTC. Time now 2020-Sep-20 00:12 UTC.
Position N 59°19' E 018°06'.

Length 22 m; draft 2 m.

Type: Sailing vessel. MMSI: 265508900.

Date/timePositionNaut miles runAvg speedWind from/ knotsBaromVisibWave heightAir tempDewpointWater temp
2020-Sep-20 00:00N 59°19' E 018°06'0 0.0
2020-Sep-19 20:28N 59°19' E 018°06'0 0.0
2020-Sep-19 18:58N 59°19' E 018°06'0 0.0
2020-Sep-19 17:28N 59°19' E 018°06'0 0.0
2020-Sep-19 16:25N 59°19' E 018°06'1 0.6
2020-Sep-19 14:00N 59°19' E 018°09'7 2.5
2020-Sep-19 11:00N 59°22' E 018°22'3 2.8
2020-Sep-19 10:01N 59°22' E 018°17'6 2.4
2020-Sep-19 07:28N 59°19' E 018°06'0 0.0
2020-Sep-19 06:58N 59°19' E 018°06'0 0.0
2020-Sep-19 04:58N 59°19' E 018°06'0 0.0
2020-Sep-19 04:28N 59°19' E 018°06'0 0.0
2020-Sep-19 02:28N 59°19' E 018°06'0 0.0
2020-Sep-19 01:30N 59°19' E 018°06'0 0.0
2020-Sep-18 23:30N 59°19' E 018°06'0 0.0
2020-Sep-18 22:28N 59°19' E 018°06'0 0.0
2020-Sep-18 19:58N 59°19' E 018°06'0 0.0
2020-Sep-18 18:58N 59°19' E 018°06'0 0.0
2020-Sep-18 17:58N 59°19' E 018°06'0 0.0
2020-Sep-18 14:58N 59°19' E 018°06'0 0.0
2020-Sep-18 13:28N 59°19' E 018°06'0 0.0
2020-Sep-18 10:28N 59°19' E 018°06'0 0.0
2020-Sep-18 07:30N 59°19' E 018°06'0 0.0
2020-Sep-18 07:00N 59°19' E 018°06'0 0.0
2020-Sep-18 05:00N 59°19' E 018°06'0 0.0
2020-Sep-18 03:01N 59°19' E 018°06'0 0.0
2020-Sep-18 01:30N 59°19' E 018°06'0 0.0
2020-Sep-18 01:00N 59°19' E 018°06'0 0.0
2020-Sep-17 19:31N 59°19' E 018°06'0 0.0
2020-Sep-17 17:00N 59°19' E 018°06'1 0.7
2020-Sep-17 15:30N 59°19' E 018°08'3 2.7
2020-Sep-17 14:30N 59°20' E 018°13'4 1.5
2020-Sep-17 11:58N 59°19' E 018°06'0 0.0
2020-Sep-17 07:58N 59°19' E 018°06'0 0.0
2020-Sep-17 07:28N 59°19' E 018°06'0 0.0
2020-Sep-17 06:59N 59°19' E 018°06'0 0.0
2020-Sep-17 06:29N 59°19' E 018°06'0 0.0
2020-Sep-17 03:28N 59°19' E 018°06'0 0.0
2020-Sep-17 02:59N 59°19' E 018°06'0 0.0
2020-Sep-17 01:28N 59°19' E 018°06'0 0.0
2020-Sep-17 00:59N 59°19' E 018°06'0 0.0
2020-Sep-17 00:28N 59°19' E 018°06'0 0.0
2020-Sep-16 23:58N 59°19' E 018°06'0 0.0
2020-Sep-16 20:28N 59°19' E 018°06'0 0.0
2020-Sep-16 18:28N 59°19' E 018°06'0 0.0
2020-Sep-16 17:58N 59°19' E 018°06'0 0.0
2020-Sep-16 16:58N 59°19' E 018°06'0 0.0
2020-Sep-16 16:25N 59°19' E 018°06'0 0.0
2020-Sep-16 11:58N 59°19' E 018°06'0 0.0
2020-Sep-16 07:00N 59°19' E 018°06'0 0.0
2020-Sep-16 05:00N 59°19' E 018°06'0 0.0
2020-Sep-16 04:30N 59°19' E 018°06'0 0.0
2020-Sep-16 04:00N 59°19' E 018°06'0 0.0
2020-Sep-16 03:00N 59°19' E 018°06'0 0.0
2020-Sep-16 00:00N 59°19' E 018°06'0 0.0
2020-Sep-15 23:30N 59°19' E 018°06'0 0.0
2020-Sep-15 22:30N 59°19' E 018°06'0 0.0
2020-Sep-15 20:30N 59°19' E 018°06'0 0.0
2020-Sep-15 14:00N 59°19' E 018°06'0 0.0
2020-Sep-15 13:30N 59°19' E 018°06'0 0.0
2020-Sep-15 11:58N 59°19' E 018°06'0 0.0
2020-Sep-15 09:28N 59°19' E 018°06'0 0.0
2020-Sep-15 07:28N 59°19' E 018°06'0 0.0
2020-Sep-15 05:28N 59°19' E 018°06'0 0.0
2020-Sep-15 02:58N 59°19' E 018°06'0 0.0
2020-Sep-15 01:43N 59°19' E 018°06'0 0.0
2020-Sep-14 20:58N 59°19' E 018°06'0 0.0
2020-Sep-14 19:58N 59°19' E 018°06'0 0.0
2020-Sep-14 14:28N 59°19' E 018°06'0 0.0
2020-Sep-14 12:28N 59°19' E 018°06'0 0.0
2020-Sep-14 09:58N 59°19' E 018°06'0 0.0
2020-Sep-14 06:30N 59°19' E 018°06'0 0.0
2020-Sep-14 05:30N 59°19' E 018°06'0 0.0
2020-Sep-14 05:00N 59°19' E 018°06'0 0.0
2020-Sep-14 04:00N 59°19' E 018°06'0 0.0
2020-Sep-14 03:30N 59°19' E 018°06'0 0.0
2020-Sep-14 03:00N 59°19' E 018°06'0 0.0
2020-Sep-14 02:30N 59°19' E 018°06'0 0.0
2020-Sep-14 00:58N 59°19' E 018°06'0 0.0
2020-Sep-13 22:28N 59°19' E 018°06'0 0.0
2020-Sep-13 21:58N 59°19' E 018°06'0 0.0
2020-Sep-13 21:28N 59°19' E 018°06'0 0.0
2020-Sep-13 15:58N 59°19' E 018°06'0 0.0
2020-Sep-13 15:28N 59°19' E 018°06'0 0.0
2020-Sep-13 14:28N 59°19' E 018°06'0 0.0
2020-Sep-13 13:28N 59°19' E 018°06'0 0.0
2020-Sep-13 08:58N 59°19' E 018°06'0 0.0
2020-Sep-13 08:28N 59°19' E 018°06'0 0.0
2020-Sep-13 04:58N 59°19' E 018°06'0 0.0
2020-Sep-13 04:28N 59°19' E 018°06'0 0.0
2020-Sep-13 03:58N 59°19' E 018°06'0 0.0
2020-Sep-13 01:46N 59°19' E 018°06'0 0.0
2020-Sep-12 23:28N 59°19' E 018°06'0 0.0
2020-Sep-12 21:00N 59°19' E 018°06'0 0.0
2020-Sep-12 20:28N 59°19' E 018°06'0 0.0
2020-Sep-12 19:28N 59°19' E 018°06'0 0.0
2020-Sep-12 17:28N 59°19' E 018°06'0 0.0
2020-Sep-12 15:58N 59°19' E 018°06'0 0.0
2020-Sep-12 15:28N 59°19' E 018°06'0 0.0
2020-Sep-12 14:28N 59°19' E 018°06'7 1.5
2020-Sep-12 10:00N 59°22' E 018°18'6 3.7
2020-Sep-12 08:30N 59°19' E 018°09'1 0.7
2020-Sep-12 06:29N 59°19' E 018°06'0 0.0
2020-Sep-12 04:59N 59°19' E 018°06'0 0.0
2020-Sep-12 04:29N 59°19' E 018°06'0 0.0
2020-Sep-12 01:29N 59°19' E 018°06'0 0.0
2020-Sep-11 23:59N 59°19' E 018°06'0 0.0
2020-Sep-11 22:29N 59°19' E 018°06'0 0.0
2020-Sep-11 19:00N 59°19' E 018°06'0 0.0
2020-Sep-11 11:00N 59°19' E 018°06'0 0.0
2020-Sep-11 09:00N 59°19' E 018°06'0 0.0
2020-Sep-11 08:30N 59°19' E 018°06'0 0.0
2020-Sep-11 08:00N 59°19' E 018°06'0 0.0
2020-Sep-11 06:30N 59°19' E 018°06'0 0.0
2020-Sep-11 06:00N 59°19' E 018°06'0 0.0
2020-Sep-11 04:00N 59°19' E 018°06'0 0.0
2020-Sep-11 03:30N 59°19' E 018°06'0 0.0
2020-Sep-10 23:30N 59°19' E 018°06'0 0.0
2020-Sep-10 22:00N 59°19' E 018°06'0 0.0
2020-Sep-10 21:30N 59°19' E 018°06'0 0.0
2020-Sep-10 21:00N 59°19' E 018°06'2 1.4
2020-Sep-10 19:30N 59°19' E 018°10'9 1.7
2020-Sep-10 14:20N 59°14' E 018°24'6 2.2
2020-Sep-10 11:30N 59°11' E 018°35'0 0.8
2020-Sep-10 11:00N 59°11' E 018°35'3 2.1
2020-Sep-10 09:30N 59°10' E 018°30'6 3.7
2020-Sep-10 08:00N 59°14' E 018°22'0 0.1
2020-Sep-10 04:57N 59°14' E 018°22'0 0.0
2020-Sep-10 03:30N 59°14' E 018°22'0 0.0
2020-Sep-10 01:30N 59°14' E 018°22'  

Dump ship's entire track history